Brazoria County Airport Angleton, Lake Jackson US
ICAO: KLBX
IATA: LBX
Category: Medium
Scheduled Services: No

Elevation: 25 ft
TransAlt. 18000 ft.

Airport Communications:
HOUSTON APP/DEP:134.45
ASOS:119.925
CLNC DEL:125.2
CTAF/UNICOM:123

KLBX Zoom In..

If you have problems with the map follow the link
https://www.worldairports.se/pages/airport.php?
ICAO=KLBX

Runways:

(A) RW 17 length 7000 ft width 100 ft
ILS 109.10 / hdg 175

(B) RW 35 length 7000 ft width 100 ft
---- / hdg 355

Location; KLBX
Day. 18 / Time. 23.53 Zulu
* Altimeter: 30.16
* Temperature: 22° c. 71.6°f.
* Wind from: 040° Speed 08 kn.
Dewpoint: 17° c.
Visibility: 10 Statute Miles.
Clouds: Overcast 2300 ft.

KLBX 182353Z AUTO 04008KT 10SM OVC023 22/17 A3016 RMK AO2 SLP213 60000 T02170172 10217 20200 53004


Wind From 040°
Speed 08 kn.

 
 
jpsmedia.com for Web Design worldairports.se 2018   terms of use